sensor_id;sensor_type;location;lat;lon;timestamp;P1;durP1;ratioP1;P2;durP2;ratioP2
13475;SDS011;6810;63.824;20.288;2022-08-27T00:01:13;3.70;;;3.40;;
13475;SDS011;6810;63.824;20.288;2022-08-27T00:03:44;4.00;;;3.60;;
13475;SDS011;6810;63.824;20.288;2022-08-27T00:06:12;3.83;;;3.40;;
13475;SDS011;6810;63.824;20.288;2022-08-27T00:08:42;3.83;;;3.53;;
13475;SDS011;6810;63.824;20.288;2022-08-27T00:11:11;3.80;;;3.30;;
13475;SDS011;6810;63.824;20.288;2022-08-27T00:13:39;3.53;;;3.20;;
13475;SDS011;6810;63.824;20.288;2022-08-27T00:16:07;4.73;;;3.20;;
13475;SDS011;6810;63.824;20.288;2022-08-27T00:18:36;3.70;;;3.40;;
13475;SDS011;6810;63.824;20.288;2022-08-27T00:21:05;3.67;;;3.07;;
13475;SDS011;6810;63.824;20.288;2022-08-27T00:23:32;3.40;;;2.97;;
13475;SDS011;6810;63.824;20.288;2022-08-27T00:26:00;3.03;;;2.83;;
13475;SDS011;6810;63.824;20.288;2022-08-27T00:28:28;3.20;;;2.97;;
13475;SDS011;6810;63.824;20.288;2022-08-27T00:30:56;3.43;;;2.87;;
13475;SDS011;6810;63.824;20.288;2022-08-27T00:33:23;4.40;;;2.83;;
13475;SDS011;6810;63.824;20.288;2022-08-27T00:35:51;3.47;;;2.80;;
13475;SDS011;6810;63.824;20.288;2022-08-27T00:38:19;2.77;;;2.57;;
13475;SDS011;6810;63.824;20.288;2022-08-27T00:40:48;3.33;;;2.70;;
13475;SDS011;6810;63.824;20.288;2022-08-27T00:43:20;3.10;;;2.80;;
13475;SDS011;6810;63.824;20.288;2022-08-27T00:45:53;2.53;;;2.37;;
13475;SDS011;6810;63.824;20.288;2022-08-27T00:48:26;3.03;;;2.43;;
13475;SDS011;6810;63.824;20.288;2022-08-27T00:50:55;2.40;;;2.23;;
13475;SDS011;6810;63.824;20.288;2022-08-27T00:53:24;3.00;;;2.80;;
13475;SDS011;6810;63.824;20.288;2022-08-27T00:55:56;2.83;;;2.37;;
13475;SDS011;6810;63.824;20.288;2022-08-27T00:58:32;3.47;;;2.43;;
13475;SDS011;6810;63.824;20.288;2022-08-27T01:01:04;2.37;;;2.17;;
13475;SDS011;6810;63.824;20.288;2022-08-27T01:03:34;2.27;;;2.17;;
13475;SDS011;6810;63.824;20.288;2022-08-27T01:06:02;2.70;;;2.50;;
13475;SDS011;6810;63.824;20.288;2022-08-27T01:08:33;3.33;;;2.53;;
13475;SDS011;6810;63.824;20.288;2022-08-27T01:11:04;2.73;;;2.53;;
13475;SDS011;6810;63.824;20.288;2022-08-27T01:13:41;2.40;;;2.20;;
13475;SDS011;6810;63.824;20.288;2022-08-27T01:16:28;2.43;;;2.23;;
13475;SDS011;6810;63.824;20.288;2022-08-27T01:19:00;2.70;;;2.10;;
13475;SDS011;6810;63.824;20.288;2022-08-27T01:21:34;2.67;;;2.10;;
13475;SDS011;6810;63.824;20.288;2022-08-27T01:26:52;2.23;;;2.07;;
13475;SDS011;6810;63.824;20.288;2022-08-27T01:29:19;2.00;;;1.90;;
13475;SDS011;6810;63.824;20.288;2022-08-27T01:31:46;2.00;;;1.90;;
13475;SDS011;6810;63.824;20.288;2022-08-27T01:34:13;2.20;;;1.93;;
13475;SDS011;6810;63.824;20.288;2022-08-27T01:36:41;2.20;;;2.00;;
13475;SDS011;6810;63.824;20.288;2022-08-27T01:39:08;1.97;;;1.83;;
13475;SDS011;6810;63.824;20.288;2022-08-27T01:41:39;2.27;;;1.90;;
13475;SDS011;6810;63.824;20.288;2022-08-27T01:44:06;2.10;;;1.90;;
13475;SDS011;6810;63.824;20.288;2022-08-27T01:46:32;2.30;;;2.10;;
13475;SDS011;6810;63.824;20.288;2022-08-27T01:49:00;2.23;;;2.03;;
13475;SDS011;6810;63.824;20.288;2022-08-27T01:51:27;3.03;;;2.00;;
13475;SDS011;6810;63.824;20.288;2022-08-27T01:53:54;2.60;;;2.20;;
13475;SDS011;6810;63.824;20.288;2022-08-27T01:56:21;2.00;;;1.90;;
13475;SDS011;6810;63.824;20.288;2022-08-27T01:58:48;1.93;;;1.80;;
13475;SDS011;6810;63.824;20.288;2022-08-27T02:01:16;2.40;;;1.83;;
13475;SDS011;6810;63.824;20.288;2022-08-27T02:03:45;2.53;;;2.00;;
13475;SDS011;6810;63.824;20.288;2022-08-27T02:06:13;1.90;;;1.80;;
13475;SDS011;6810;63.824;20.288;2022-08-27T02:08:41;2.23;;;1.70;;
13475;SDS011;6810;63.824;20.288;2022-08-27T02:11:08;1.97;;;1.87;;
13475;SDS011;6810;63.824;20.288;2022-08-27T02:13:35;2.40;;;1.93;;
13475;SDS011;6810;63.824;20.288;2022-08-27T02:16:03;1.80;;;1.70;;
13475;SDS011;6810;63.824;20.288;2022-08-27T02:18:31;2.00;;;1.90;;
13475;SDS011;6810;63.824;20.288;2022-08-27T02:20:58;1.90;;;1.80;;
13475;SDS011;6810;63.824;20.288;2022-08-27T02:23:25;1.90;;;1.63;;
13475;SDS011;6810;63.824;20.288;2022-08-27T02:25:52;2.27;;;1.83;;
13475;SDS011;6810;63.824;20.288;2022-08-27T02:28:19;1.90;;;1.73;;
13475;SDS011;6810;63.824;20.288;2022-08-27T02:30:46;2.37;;;1.70;;
13475;SDS011;6810;63.824;20.288;2022-08-27T02:33:13;1.93;;;1.83;;
13475;SDS011;6810;63.824;20.288;2022-08-27T02:35:41;2.53;;;1.80;;
13475;SDS011;6810;63.824;20.288;2022-08-27T02:38:10;1.87;;;1.70;;
13475;SDS011;6810;63.824;20.288;2022-08-27T02:40:39;1.77;;;1.67;;
13475;SDS011;6810;63.824;20.288;2022-08-27T02:43:06;2.10;;;1.90;;
13475;SDS011;6810;63.824;20.288;2022-08-27T02:45:33;1.67;;;1.57;;
13475;SDS011;6810;63.824;20.288;2022-08-27T02:48:03;2.00;;;1.90;;
13475;SDS011;6810;63.824;20.288;2022-08-27T02:50:31;1.70;;;1.60;;
13475;SDS011;6810;63.824;20.288;2022-08-27T02:52:59;2.97;;;1.67;;
13475;SDS011;6810;63.824;20.288;2022-08-27T02:55:31;1.83;;;1.47;;
13475;SDS011;6810;63.824;20.288;2022-08-27T02:57:58;1.90;;;1.80;;
13475;SDS011;6810;63.824;20.288;2022-08-27T03:00:25;1.90;;;1.80;;
13475;SDS011;6810;63.824;20.288;2022-08-27T03:02:54;1.80;;;1.70;;
13475;SDS011;6810;63.824;20.288;2022-08-27T03:05:23;1.77;;;1.67;;
13475;SDS011;6810;63.824;20.288;2022-08-27T03:07:51;1.60;;;1.50;;
13475;SDS011;6810;63.824;20.288;2022-08-27T03:10:18;1.90;;;1.47;;
13475;SDS011;6810;63.824;20.288;2022-08-27T03:12:46;1.97;;;1.60;;
13475;SDS011;6810;63.824;20.288;2022-08-27T03:15:15;1.53;;;1.43;;
13475;SDS011;6810;63.824;20.288;2022-08-27T03:17:44;1.60;;;1.50;;
13475;SDS011;6810;63.824;20.288;2022-08-27T03:20:30;1.63;;;1.53;;
13475;SDS011;6810;63.824;20.288;2022-08-27T03:22:57;2.00;;;1.80;;
13475;SDS011;6810;63.824;20.288;2022-08-27T03:25:26;1.60;;;1.50;;
13475;SDS011;6810;63.824;20.288;2022-08-27T03:27:53;1.87;;;1.77;;
13475;SDS011;6810;63.824;20.288;2022-08-27T03:30:21;1.93;;;1.60;;
13475;SDS011;6810;63.824;20.288;2022-08-27T03:32:49;1.53;;;1.43;;
13475;SDS011;6810;63.824;20.288;2022-08-27T03:35:16;1.93;;;1.80;;
13475;SDS011;6810;63.824;20.288;2022-08-27T03:37:47;1.70;;;1.60;;
13475;SDS011;6810;63.824;20.288;2022-08-27T03:40:15;1.90;;;1.80;;
13475;SDS011;6810;63.824;20.288;2022-08-27T03:42:43;1.90;;;1.80;;
13475;SDS011;6810;63.824;20.288;2022-08-27T03:45:10;1.83;;;1.60;;
13475;SDS011;6810;63.824;20.288;2022-08-27T03:47:38;2.40;;;1.70;;
13475;SDS011;6810;63.824;20.288;2022-08-27T03:50:05;1.80;;;1.70;;
13475;SDS011;6810;63.824;20.288;2022-08-27T03:52:34;2.17;;;1.90;;
13475;SDS011;6810;63.824;20.288;2022-08-27T03:55:01;1.63;;;1.53;;
13475;SDS011;6810;63.824;20.288;2022-08-27T03:57:30;1.70;;;1.60;;
13475;SDS011;6810;63.824;20.288;2022-08-27T03:59:58;2.13;;;2.03;;
13475;SDS011;6810;63.824;20.288;2022-08-27T04:02:26;2.10;;;2.00;;
13475;SDS011;6810;63.824;20.288;2022-08-27T04:04:53;2.20;;;2.00;;
13475;SDS011;6810;63.824;20.288;2022-08-27T04:07:23;1.93;;;1.83;;
13475;SDS011;6810;63.824;20.288;2022-08-27T04:09:50;2.70;;;1.87;;
13475;SDS011;6810;63.824;20.288;2022-08-27T04:12:17;3.07;;;2.00;;
13475;SDS011;6810;63.824;20.288;2022-08-27T04:14:44;2.53;;;2.07;;
13475;SDS011;6810;63.824;20.288;2022-08-27T04:17:12;2.40;;;1.80;;
13475;SDS011;6810;63.824;20.288;2022-08-27T04:19:39;1.93;;;1.70;;
13475;SDS011;6810;63.824;20.288;2022-08-27T04:22:06;2.10;;;2.00;;
13475;SDS011;6810;63.824;20.288;2022-08-27T04:24:34;2.20;;;2.10;;
13475;SDS011;6810;63.824;20.288;2022-08-27T04:27:04;2.17;;;2.07;;
13475;SDS011;6810;63.824;20.288;2022-08-27T04:29:31;2.20;;;2.00;;
13475;SDS011;6810;63.824;20.288;2022-08-27T04:31:59;2.70;;;2.50;;
13475;SDS011;6810;63.824;20.288;2022-08-27T04:34:27;2.57;;;2.37;;
13475;SDS011;6810;63.824;20.288;2022-08-27T04:36:55;2.30;;;1.97;;
13475;SDS011;6810;63.824;20.288;2022-08-27T04:39:23;2.40;;;2.20;;
13475;SDS011;6810;63.824;20.288;2022-08-27T04:41:51;2.03;;;1.93;;
13475;SDS011;6810;63.824;20.288;2022-08-27T04:44:21;2.20;;;2.10;;
13475;SDS011;6810;63.824;20.288;2022-08-27T04:46:53;2.33;;;2.20;;
13475;SDS011;6810;63.824;20.288;2022-08-27T04:49:23;2.37;;;2.20;;
13475;SDS011;6810;63.824;20.288;2022-08-27T04:51:50;2.50;;;2.30;;
13475;SDS011;6810;63.824;20.288;2022-08-27T04:54:17;2.27;;;2.17;;
13475;SDS011;6810;63.824;20.288;2022-08-27T04:56:58;2.40;;;2.20;;
13475;SDS011;6810;63.824;20.288;2022-08-27T04:59:25;2.50;;;2.30;;
13475;SDS011;6810;63.824;20.288;2022-08-27T05:01:52;2.83;;;2.20;;
13475;SDS011;6810;63.824;20.288;2022-08-27T05:04:19;2.43;;;2.23;;
13475;SDS011;6810;63.824;20.288;2022-08-27T05:06:46;2.70;;;2.50;;
13475;SDS011;6810;63.824;20.288;2022-08-27T05:09:15;3.00;;;2.70;;
13475;SDS011;6810;63.824;20.288;2022-08-27T05:11:45;2.80;;;2.60;;
13475;SDS011;6810;63.824;20.288;2022-08-27T05:14:13;2.30;;;2.20;;
13475;SDS011;6810;63.824;20.288;2022-08-27T05:16:41;2.70;;;2.50;;
13475;SDS011;6810;63.824;20.288;2022-08-27T05:19:09;2.40;;;2.20;;
13475;SDS011;6810;63.824;20.288;2022-08-27T05:21:42;2.60;;;2.40;;
13475;SDS011;6810;63.824;20.288;2022-08-27T05:24:13;2.40;;;2.30;;
13475;SDS011;6810;63.824;20.288;2022-08-27T05:26:41;2.67;;;2.47;;
13475;SDS011;6810;63.824;20.288;2022-08-27T05:29:09;2.37;;;2.20;;
13475;SDS011;6810;63.824;20.288;2022-08-27T05:31:37;2.63;;;2.20;;
13475;SDS011;6810;63.824;20.288;2022-08-27T05:34:05;3.83;;;2.70;;
13475;SDS011;6810;63.824;20.288;2022-08-27T05:36:36;2.53;;;2.33;;
13475;SDS011;6810;63.824;20.288;2022-08-27T05:39:14;2.47;;;2.17;;
13475;SDS011;6810;63.824;20.288;2022-08-27T05:41:42;2.50;;;2.30;;
13475;SDS011;6810;63.824;20.288;2022-08-27T05:44:09;2.60;;;2.40;;
13475;SDS011;6810;63.824;20.288;2022-08-27T05:46:56;2.40;;;2.20;;
13475;SDS011;6810;63.824;20.288;2022-08-27T05:49:23;2.27;;;2.13;;
13475;SDS011;6810;63.824;20.288;2022-08-27T05:51:51;2.60;;;2.47;;
13475;SDS011;6810;63.824;20.288;2022-08-27T05:54:18;2.47;;;2.27;;
13475;SDS011;6810;63.824;20.288;2022-08-27T05:56:46;2.40;;;2.20;;
13475;SDS011;6810;63.824;20.288;2022-08-27T05:59:15;2.83;;;2.63;;
13475;SDS011;6810;63.824;20.288;2022-08-27T06:02:02;2.43;;;2.27;;
13475;SDS011;6810;63.824;20.288;2022-08-27T06:04:31;2.50;;;2.30;;
13475;SDS011;6810;63.824;20.288;2022-08-27T06:06:58;2.57;;;2.47;;
13475;SDS011;6810;63.824;20.288;2022-08-27T06:09:26;2.47;;;2.27;;
13475;SDS011;6810;63.824;20.288;2022-08-27T06:11:57;2.70;;;2.50;;
13475;SDS011;6810;63.824;20.288;2022-08-27T06:14:25;2.53;;;2.33;;
13475;SDS011;6810;63.824;20.288;2022-08-27T06:16:53;2.83;;;2.63;;
13475;SDS011;6810;63.824;20.288;2022-08-27T06:19:21;3.30;;;2.70;;
13475;SDS011;6810;63.824;20.288;2022-08-27T06:21:49;2.80;;;2.60;;
13475;SDS011;6810;63.824;20.288;2022-08-27T06:24:36;2.93;;;2.73;;
13475;SDS011;6810;63.824;20.288;2022-08-27T06:27:11;3.03;;;2.77;;
13475;SDS011;6810;63.824;20.288;2022-08-27T06:30:01;3.13;;;2.93;;
13475;SDS011;6810;63.824;20.288;2022-08-27T06:32:48;2.90;;;2.70;;
13475;SDS011;6810;63.824;20.288;2022-08-27T06:35:35;4.07;;;3.13;;
13475;SDS011;6810;63.824;20.288;2022-08-27T06:38:02;3.10;;;2.90;;
13475;SDS011;6810;63.824;20.288;2022-08-27T06:40:29;2.90;;;2.60;;
13475;SDS011;6810;63.824;20.288;2022-08-27T06:42:56;3.33;;;2.90;;
13475;SDS011;6810;63.824;20.288;2022-08-27T06:45:23;3.53;;;3.23;;
13475;SDS011;6810;63.824;20.288;2022-08-27T06:47:50;3.73;;;2.93;;
13475;SDS011;6810;63.824;20.288;2022-08-27T06:50:17;3.17;;;2.87;;
13475;SDS011;6810;63.824;20.288;2022-08-27T06:52:52;3.63;;;3.33;;
13475;SDS011;6810;63.824;20.288;2022-08-27T06:55:19;3.70;;;3.40;;
13475;SDS011;6810;63.824;20.288;2022-08-27T06:57:46;4.27;;;3.77;;
13475;SDS011;6810;63.824;20.288;2022-08-27T07:00:13;4.50;;;3.23;;
13475;SDS011;6810;63.824;20.288;2022-08-27T07:02:40;3.50;;;3.30;;
13475;SDS011;6810;63.824;20.288;2022-08-27T07:05:08;3.60;;;3.30;;
13475;SDS011;6810;63.824;20.288;2022-08-27T07:07:37;4.20;;;3.40;;
13475;SDS011;6810;63.824;20.288;2022-08-27T07:10:12;3.83;;;3.53;;
13475;SDS011;6810;63.824;20.288;2022-08-27T07:12:39;3.90;;;3.60;;
13475;SDS011;6810;63.824;20.288;2022-08-27T07:15:06;3.63;;;3.33;;
13475;SDS011;6810;63.824;20.288;2022-08-27T07:17:34;4.17;;;3.77;;
13475;SDS011;6810;63.824;20.288;2022-08-27T07:20:01;3.90;;;3.60;;
13475;SDS011;6810;63.824;20.288;2022-08-27T07:22:30;4.20;;;3.80;;
13475;SDS011;6810;63.824;20.288;2022-08-27T07:24:56;3.53;;;3.20;;
13475;SDS011;6810;63.824;20.288;2022-08-27T07:27:23;6.57;;;4.27;;
13475;SDS011;6810;63.824;20.288;2022-08-27T07:29:51;4.73;;;3.90;;
13475;SDS011;6810;63.824;20.288;2022-08-27T07:32:18;4.50;;;4.10;;
13475;SDS011;6810;63.824;20.288;2022-08-27T07:34:45;5.03;;;3.80;;
13475;SDS011;6810;63.824;20.288;2022-08-27T07:37:12;4.33;;;3.93;;
13475;SDS011;6810;63.824;20.288;2022-08-27T07:39:40;4.20;;;3.80;;
13475;SDS011;6810;63.824;20.288;2022-08-27T07:42:07;5.37;;;3.70;;
13475;SDS011;6810;63.824;20.288;2022-08-27T07:44:53;4.23;;;3.93;;
13475;SDS011;6810;63.824;20.288;2022-08-27T07:47:20;4.27;;;3.87;;
13475;SDS011;6810;63.824;20.288;2022-08-27T07:49:49;4.57;;;4.17;;
13475;SDS011;6810;63.824;20.288;2022-08-27T07:52:16;5.37;;;4.43;;
13475;SDS011;6810;63.824;20.288;2022-08-27T07:54:43;4.70;;;4.30;;
13475;SDS011;6810;63.824;20.288;2022-08-27T07:57:10;4.90;;;4.50;;
13475;SDS011;6810;63.824;20.288;2022-08-27T07:59:37;5.07;;;4.50;;
13475;SDS011;6810;63.824;20.288;2022-08-27T08:02:04;4.53;;;4.13;;
13475;SDS011;6810;63.824;20.288;2022-08-27T08:04:31;4.70;;;4.30;;
13475;SDS011;6810;63.824;20.288;2022-08-27T08:06:59;4.77;;;4.37;;
13475;SDS011;6810;63.824;20.288;2022-08-27T08:09:26;4.13;;;3.73;;
13475;SDS011;6810;63.824;20.288;2022-08-27T08:12:13;5.10;;;4.40;;
13475;SDS011;6810;63.824;20.288;2022-08-27T08:15:00;5.40;;;4.47;;
13475;SDS011;6810;63.824;20.288;2022-08-27T08:17:47;4.83;;;4.33;;
13475;SDS011;6810;63.824;20.288;2022-08-27T08:20:34;4.90;;;4.40;;
13475;SDS011;6810;63.824;20.288;2022-08-27T08:23:24;5.23;;;4.73;;
13475;SDS011;6810;63.824;20.288;2022-08-27T08:25:51;5.47;;;4.70;;
13475;SDS011;6810;63.824;20.288;2022-08-27T08:28:18;5.00;;;4.50;;
13475;SDS011;6810;63.824;20.288;2022-08-27T08:30:45;5.00;;;4.50;;
13475;SDS011;6810;63.824;20.288;2022-08-27T08:33:33;5.07;;;4.57;;
13475;SDS011;6810;63.824;20.288;2022-08-27T08:36:21;7.13;;;4.73;;
13475;SDS011;6810;63.824;20.288;2022-08-27T08:39:11;5.17;;;4.60;;
13475;SDS011;6810;63.824;20.288;2022-08-27T08:41:53;6.23;;;5.03;;
13475;SDS011;6810;63.824;20.288;2022-08-27T08:44:42;5.63;;;4.83;;
13475;SDS011;6810;63.824;20.288;2022-08-27T08:50:07;5.17;;;4.60;;
13475;SDS011;6810;63.824;20.288;2022-08-27T08:52:58;7.23;;;5.03;;
13475;SDS011;6810;63.824;20.288;2022-08-27T08:55:32;5.40;;;4.70;;
13475;SDS011;6810;63.824;20.288;2022-08-27T09:01:14;5.10;;;4.60;;
13475;SDS011;6810;63.824;20.288;2022-08-27T09:04:04;6.23;;;5.30;;
13475;SDS011;6810;63.824;20.288;2022-08-27T09:06:59;7.00;;;5.10;;
13475;SDS011;6810;63.824;20.288;2022-08-27T09:09:55;4.77;;;4.37;;
13475;SDS011;6810;63.824;20.288;2022-08-27T09:13:17;5.30;;;4.60;;
13475;SDS011;6810;63.824;20.288;2022-08-27T09:16:08;6.83;;;4.83;;
13475;SDS011;6810;63.824;20.288;2022-08-27T09:18:55;5.47;;;4.70;;
13475;SDS011;6810;63.824;20.288;2022-08-27T09:24:54;5.33;;;4.67;;
13475;SDS011;6810;63.824;20.288;2022-08-27T09:28:12;5.70;;;5.13;;
13475;SDS011;6810;63.824;20.288;2022-08-27T09:31:05;5.80;;;5.00;;
13475;SDS011;6810;63.824;20.288;2022-08-27T09:33:53;5.03;;;4.53;;
13475;SDS011;6810;63.824;20.288;2022-08-27T09:36:52;7.23;;;5.20;;
13475;SDS011;6810;63.824;20.288;2022-08-27T09:39:49;6.07;;;4.60;;
13475;SDS011;6810;63.824;20.288;2022-08-27T09:42:55;5.17;;;4.20;;
13475;SDS011;6810;63.824;20.288;2022-08-27T09:46:16;4.80;;;4.13;;
13475;SDS011;6810;63.824;20.288;2022-08-27T09:49:10;5.83;;;4.33;;
13475;SDS011;6810;63.824;20.288;2022-08-27T09:51:59;6.00;;;4.60;;
13475;SDS011;6810;63.824;20.288;2022-08-27T09:54:47;5.90;;;4.63;;
13475;SDS011;6810;63.824;20.288;2022-08-27T09:57:38;5.63;;;4.47;;
13475;SDS011;6810;63.824;20.288;2022-08-27T10:00:30;4.53;;;4.13;;
13475;SDS011;6810;63.824;20.288;2022-08-27T10:03:21;5.30;;;4.80;;
13475;SDS011;6810;63.824;20.288;2022-08-27T10:06:08;6.23;;;4.77;;
13475;SDS011;6810;63.824;20.288;2022-08-27T10:08:58;4.80;;;4.33;;
13475;SDS011;6810;63.824;20.288;2022-08-27T10:12:02;5.07;;;4.50;;
13475;SDS011;6810;63.824;20.288;2022-08-27T10:14:58;5.10;;;4.53;;
13475;SDS011;6810;63.824;20.288;2022-08-27T10:20:39;5.50;;;4.60;;
13475;SDS011;6810;63.824;20.288;2022-08-27T10:26:26;4.90;;;4.27;;
13475;SDS011;6810;63.824;20.288;2022-08-27T10:38:35;4.63;;;4.13;;
13475;SDS011;6810;63.824;20.288;2022-08-27T10:41:27;5.77;;;4.40;;
13475;SDS011;6810;63.824;20.288;2022-08-27T10:56:37;5.23;;;4.27;;
13475;SDS011;6810;63.824;20.288;2022-08-27T11:02:55;5.70;;;4.80;;
13475;SDS011;6810;63.824;20.288;2022-08-27T11:05:48;6.97;;;5.10;;
13475;SDS011;6810;63.824;20.288;2022-08-27T11:08:47;6.80;;;4.53;;
13475;SDS011;6810;63.824;20.288;2022-08-27T11:11:44;5.50;;;4.83;;
13475;SDS011;6810;63.824;20.288;2022-08-27T11:14:57;8.90;;;5.40;;
13475;SDS011;6810;63.824;20.288;2022-08-27T11:21:30;6.90;;;5.10;;
13475;SDS011;6810;63.824;20.288;2022-08-27T11:24:43;5.57;;;5.07;;
13475;SDS011;6810;63.824;20.288;2022-08-27T11:27:37;6.33;;;5.03;;
13475;SDS011;6810;63.824;20.288;2022-08-27T11:40:16;7.23;;;6.00;;
13475;SDS011;6810;63.824;20.288;2022-08-27T11:43:17;6.90;;;5.57;;
13475;SDS011;6810;63.824;20.288;2022-08-27T11:46:09;6.23;;;5.43;;
13475;SDS011;6810;63.824;20.288;2022-08-27T11:48:58;6.10;;;4.90;;
13475;SDS011;6810;63.824;20.288;2022-08-27T11:51:54;6.80;;;4.87;;
13475;SDS011;6810;63.824;20.288;2022-08-27T11:55:11;5.40;;;4.90;;
13475;SDS011;6810;63.824;20.288;2022-08-27T11:58:07;7.00;;;5.10;;
13475;SDS011;6810;63.824;20.288;2022-08-27T12:00:58;5.80;;;5.20;;
13475;SDS011;6810;63.824;20.288;2022-08-27T12:03:45;6.43;;;5.30;;
13475;SDS011;6810;63.824;20.288;2022-08-27T12:06:39;7.93;;;6.10;;
13475;SDS011;6810;63.824;20.288;2022-08-27T12:09:41;6.47;;;5.87;;
13475;SDS011;6810;63.824;20.288;2022-08-27T12:25:04;7.07;;;5.80;;
13475;SDS011;6810;63.824;20.288;2022-08-27T12:27:59;6.97;;;5.80;;
13475;SDS011;6810;63.824;20.288;2022-08-27T12:30:52;5.53;;;5.00;;
13475;SDS011;6810;63.824;20.288;2022-08-27T12:33:41;7.37;;;5.43;;
13475;SDS011;6810;63.824;20.288;2022-08-27T12:36:32;9.27;;;7.47;;
13475;SDS011;6810;63.824;20.288;2022-08-27T12:39:22;7.93;;;7.13;;
13475;SDS011;6810;63.824;20.288;2022-08-27T12:42:16;7.70;;;5.73;;
13475;SDS011;6810;63.824;20.288;2022-08-27T12:45:05;6.40;;;5.80;;
13475;SDS011;6810;63.824;20.288;2022-08-27T12:47:53;6.97;;;5.93;;
13475;SDS011;6810;63.824;20.288;2022-08-27T12:50:41;7.13;;;6.27;;
13475;SDS011;6810;63.824;20.288;2022-08-27T12:53:50;7.57;;;5.53;;
13475;SDS011;6810;63.824;20.288;2022-08-27T13:00:03;6.80;;;6.00;;
13475;SDS011;6810;63.824;20.288;2022-08-27T13:06:20;7.43;;;5.30;;
13475;SDS011;6810;63.824;20.288;2022-08-27T13:09:28;8.20;;;6.20;;
13475;SDS011;6810;63.824;20.288;2022-08-27T13:12:23;7.87;;;6.47;;
13475;SDS011;6810;63.824;20.288;2022-08-27T13:15:11;6.60;;;6.00;;
13475;SDS011;6810;63.824;20.288;2022-08-27T13:18:00;8.63;;;6.00;;
13475;SDS011;6810;63.824;20.288;2022-08-27T13:21:28;8.83;;;5.63;;
13475;SDS011;6810;63.824;20.288;2022-08-27T13:24:08;5.97;;;5.37;;
13475;SDS011;6810;63.824;20.288;2022-08-27T13:26:56;6.20;;;4.90;;
13475;SDS011;6810;63.824;20.288;2022-08-27T13:29:43;8.50;;;5.27;;
13475;SDS011;6810;63.824;20.288;2022-08-27T13:32:30;7.67;;;5.50;;
13475;SDS011;6810;63.824;20.288;2022-08-27T13:35:19;6.00;;;5.43;;
13475;SDS011;6810;63.824;20.288;2022-08-27T13:38:06;6.80;;;5.60;;
13475;SDS011;6810;63.824;20.288;2022-08-27T13:40:35;6.00;;;4.83;;
13475;SDS011;6810;63.824;20.288;2022-08-27T13:43:13;6.00;;;4.90;;
13475;SDS011;6810;63.824;20.288;2022-08-27T13:45:40;7.17;;;5.70;;
13475;SDS011;6810;63.824;20.288;2022-08-27T13:48:09;7.50;;;6.80;;
13475;SDS011;6810;63.824;20.288;2022-08-27T13:50:58;7.37;;;6.60;;
13475;SDS011;6810;63.824;20.288;2022-08-27T13:53:46;7.10;;;6.50;;
13475;SDS011;6810;63.824;20.288;2022-08-27T13:56:34;7.03;;;5.83;;
13475;SDS011;6810;63.824;20.288;2022-08-27T13:59:11;6.13;;;5.53;;
13475;SDS011;6810;63.824;20.288;2022-08-27T14:01:52;7.60;;;5.23;;
13475;SDS011;6810;63.824;20.288;2022-08-27T14:04:49;6.53;;;5.57;;
13475;SDS011;6810;63.824;20.288;2022-08-27T14:07:47;8.07;;;6.30;;
13475;SDS011;6810;63.824;20.288;2022-08-27T14:12:45;6.90;;;6.30;;
13475;SDS011;6810;63.824;20.288;2022-08-27T14:17:57;5.37;;;3.70;;
13475;SDS011;6810;63.824;20.288;2022-08-27T14:20:24;4.73;;;3.03;;
13475;SDS011;6810;63.824;20.288;2022-08-27T14:22:51;3.87;;;3.20;;
13475;SDS011;6810;63.824;20.288;2022-08-27T14:25:19;4.23;;;2.90;;
13475;SDS011;6810;63.824;20.288;2022-08-27T14:27:49;5.57;;;3.20;;
13475;SDS011;6810;63.824;20.288;2022-08-27T14:30:21;5.93;;;3.33;;
13475;SDS011;6810;63.824;20.288;2022-08-27T14:32:59;6.53;;;3.00;;
13475;SDS011;6810;63.824;20.288;2022-08-27T14:35:30;4.00;;;2.60;;
13475;SDS011;6810;63.824;20.288;2022-08-27T14:38:00;3.47;;;3.17;;
13475;SDS011;6810;63.824;20.288;2022-08-27T14:41:08;3.47;;;2.80;;
13475;SDS011;6810;63.824;20.288;2022-08-27T14:43:58;4.30;;;3.17;;
13475;SDS011;6810;63.824;20.288;2022-08-27T14:46:46;3.47;;;3.17;;
13475;SDS011;6810;63.824;20.288;2022-08-27T14:49:36;6.33;;;3.20;;
13475;SDS011;6810;63.824;20.288;2022-08-27T14:52:26;4.23;;;3.63;;
13475;SDS011;6810;63.824;20.288;2022-08-27T14:54:53;5.07;;;3.13;;
13475;SDS011;6810;63.824;20.288;2022-08-27T14:57:20;3.67;;;3.20;;
13475;SDS011;6810;63.824;20.288;2022-08-27T14:59:48;4.63;;;3.20;;
13475;SDS011;6810;63.824;20.288;2022-08-27T15:02:15;3.83;;;3.30;;
13475;SDS011;6810;63.824;20.288;2022-08-27T15:04:44;3.73;;;3.33;;
13475;SDS011;6810;63.824;20.288;2022-08-27T15:07:13;3.60;;;3.10;;
13475;SDS011;6810;63.824;20.288;2022-08-27T15:10:01;3.33;;;2.70;;
13475;SDS011;6810;63.824;20.288;2022-08-27T15:12:48;3.97;;;3.33;;
13475;SDS011;6810;63.824;20.288;2022-08-27T15:15:35;3.30;;;3.00;;
13475;SDS011;6810;63.824;20.288;2022-08-27T15:18:22;3.90;;;3.20;;
13475;SDS011;6810;63.824;20.288;2022-08-27T15:21:24;3.43;;;2.87;;
13475;SDS011;6810;63.824;20.288;2022-08-27T15:23:58;4.93;;;2.90;;
13475;SDS011;6810;63.824;20.288;2022-08-27T15:26:47;3.67;;;3.03;;
13475;SDS011;6810;63.824;20.288;2022-08-27T15:29:35;3.37;;;3.07;;
13475;SDS011;6810;63.824;20.288;2022-08-27T15:35:13;3.73;;;2.73;;
13475;SDS011;6810;63.824;20.288;2022-08-27T15:38:02;5.53;;;3.63;;
13475;SDS011;6810;63.824;20.288;2022-08-27T15:40:49;6.03;;;3.80;;
13475;SDS011;6810;63.824;20.288;2022-08-27T15:43:17;4.43;;;3.27;;
13475;SDS011;6810;63.824;20.288;2022-08-27T15:45:44;5.13;;;3.10;;
13475;SDS011;6810;63.824;20.288;2022-08-27T15:48:11;5.50;;;3.30;;
13475;SDS011;6810;63.824;20.288;2022-08-27T15:51:00;3.00;;;2.70;;
13475;SDS011;6810;63.824;20.288;2022-08-27T15:53:51;3.17;;;2.87;;
13475;SDS011;6810;63.824;20.288;2022-08-27T15:56:38;4.00;;;3.70;;
13475;SDS011;6810;63.824;20.288;2022-08-27T15:59:05;5.20;;;3.57;;
13475;SDS011;6810;63.824;20.288;2022-08-27T16:01:34;3.53;;;3.23;;
13475;SDS011;6810;63.824;20.288;2022-08-27T16:04:02;4.67;;;3.73;;
13475;SDS011;6810;63.824;20.288;2022-08-27T16:06:30;3.77;;;3.47;;
13475;SDS011;6810;63.824;20.288;2022-08-27T16:08:57;3.73;;;3.43;;
13475;SDS011;6810;63.824;20.288;2022-08-27T16:11:25;4.43;;;3.57;;
13475;SDS011;6810;63.824;20.288;2022-08-27T16:13:52;5.90;;;5.10;;
13475;SDS011;6810;63.824;20.288;2022-08-27T16:16:22;4.90;;;4.50;;
13475;SDS011;6810;63.824;20.288;2022-08-27T16:18:53;5.13;;;4.03;;
13475;SDS011;6810;63.824;20.288;2022-08-27T16:21:20;6.20;;;3.70;;
13475;SDS011;6810;63.824;20.288;2022-08-27T16:23:48;4.20;;;3.43;;
13475;SDS011;6810;63.824;20.288;2022-08-27T16:26:15;5.87;;;3.83;;
13475;SDS011;6810;63.824;20.288;2022-08-27T16:28:42;4.90;;;4.30;;
13475;SDS011;6810;63.824;20.288;2022-08-27T16:31:11;9.33;;;3.80;;
13475;SDS011;6810;63.824;20.288;2022-08-27T16:34:01;5.37;;;4.20;;
13475;SDS011;6810;63.824;20.288;2022-08-27T16:36:48;4.30;;;3.90;;
13475;SDS011;6810;63.824;20.288;2022-08-27T16:39:35;3.30;;;3.00;;
13475;SDS011;6810;63.824;20.288;2022-08-27T16:42:22;4.33;;;3.40;;
13475;SDS011;6810;63.824;20.288;2022-08-27T16:45:10;3.93;;;3.40;;
13475;SDS011;6810;63.824;20.288;2022-08-27T16:47:58;5.87;;;3.70;;
13475;SDS011;6810;63.824;20.288;2022-08-27T16:50:43;4.40;;;3.90;;
13475;SDS011;6810;63.824;20.288;2022-08-27T16:53:31;4.10;;;3.40;;
13475;SDS011;6810;63.824;20.288;2022-08-27T16:56:22;3.63;;;3.27;;
13475;SDS011;6810;63.824;20.288;2022-08-27T16:58:54;3.67;;;3.33;;
13475;SDS011;6810;63.824;20.288;2022-08-27T17:01:42;3.80;;;3.20;;
13475;SDS011;6810;63.824;20.288;2022-08-27T17:04:33;5.10;;;4.20;;
13475;SDS011;6810;63.824;20.288;2022-08-27T17:07:40;6.37;;;3.50;;
13475;SDS011;6810;63.824;20.288;2022-08-27T17:10:31;3.30;;;3.00;;